Time;durP1;ratioP1;P1;durP2;ratioP2;P2;SDS_P1;SDS_P2;PMS_P1;PMS_P2;Temp;Humidity;BMP_temperature;BMP_pressure;BME280_temperature;BME280_humidity;BME280_pressure;Samples;Min_cycle;Max_cycle;Signal;HPM_P1;HPM_P2
2023/04/07 00:00:03;;;;;;;12.70;2.78;;;;;;;5.54;100.00;101655.41;5097656;28;20103;-78
2023/04/07 00:02:29;;;;;;;17.63;3.25;;;;;;;5.54;100.00;101653.63;5080949;28;20036;-77
2023/04/07 00:04:56;;;;;;;11.38;2.88;;;;;;;5.51;100.00;101653.81;5097639;28;20480;-77
2023/04/07 00:07:22;;;;;;;24.70;3.25;;;;;;;5.46;100.00;101651.41;5097561;28;20043;-78
2023/04/07 00:09:47;;;;;;;13.48;2.72;;;;;;;5.39;100.00;101652.69;5080993;28;20032;-78
2023/04/07 00:12:12;;;;;;;11.93;2.95;;;;;;;5.38;100.00;101656.25;5097607;28;20069;-78
2023/04/07 00:14:38;;;;;;;17.52;2.38;;;;;;;5.32;100.00;101650.50;5097577;28;20064;-76
2023/04/07 00:17:03;;;;;;;18.00;3.08;;;;;;;5.30;100.00;101659.34;5115378;28;20040;-77
2023/04/07 00:19:29;;;;;;;14.73;2.45;;;;;;;5.26;100.00;101649.88;5115206;28;20433;-78
2023/04/07 00:21:54;;;;;;;13.95;2.97;;;;;;;5.21;100.00;101657.22;5097132;28;20092;-78
2023/04/07 00:24:19;;;;;;;11.68;1.92;;;;;;;5.18;100.00;101653.88;5097311;28;20380;-79
2023/04/07 00:26:45;;;;;;;16.83;2.78;;;;;;;5.10;100.00;101655.13;5097434;28;20397;-78
2023/04/07 00:29:10;;;;;;;18.20;2.95;;;;;;;5.05;100.00;101654.53;5115060;28;20099;-78
2023/04/07 00:31:36;;;;;;;16.25;2.95;;;;;;;5.01;100.00;101658.28;5114977;28;20035;-78
2023/04/07 00:34:01;;;;;;;21.23;2.75;;;;;;;4.95;100.00;101651.53;5115248;28;20436;-78
2023/04/07 00:36:27;;;;;;;13.75;2.47;;;;;;;4.92;100.00;101658.78;5096760;28;20027;-76
2023/04/07 00:38:53;;;;;;;19.15;2.78;;;;;;;4.88;100.00;101662.50;5115322;28;20042;-78
2023/04/07 00:41:18;;;;;;;19.98;2.63;;;;;;;4.83;100.00;101667.19;5114789;28;20035;-79
2023/04/07 00:43:44;;;;;;;21.05;3.30;;;;;;;4.80;100.00;101664.72;5115523;28;20385;-79
2023/04/07 00:46:10;;;;;;;17.77;3.50;;;;;;;4.82;100.00;101665.47;5096645;28;20027;-78
2023/04/07 00:48:36;;;;;;;14.63;2.80;;;;;;;4.79;100.00;101663.00;5096627;28;20036;-79
2023/04/07 00:51:02;;;;;;;13.05;2.63;;;;;;;4.75;100.00;101670.22;5096814;28;20032;-80
2023/04/07 00:53:28;;;;;;;13.95;2.67;;;;;;;4.80;100.00;101676.09;5096496;28;20075;-78
2023/04/07 00:55:54;;;;;;;16.17;3.53;;;;;;;4.82;100.00;101676.91;5096592;28;20086;-77
2023/04/07 00:58:19;;;;;;;11.00;2.55;;;;;;;4.85;100.00;101670.56;5096810;28;20068;-78
2023/04/07 01:00:50;;;;;;;16.17;3.05;;;;;;;4.90;100.00;101668.56;5096500;28;20040;-78
2023/04/07 01:03:27;;;;;;;20.13;3.03;;;;;;;4.95;100.00;101666.53;5115063;28;20028;-78
2023/04/07 01:06:00;;;;;;;16.95;3.03;;;;;;;4.98;100.00;101666.34;5095724;28;20032;-79
2023/04/07 01:08:37;;;;;;;16.35;2.95;;;;;;;5.00;100.00;101668.91;5097266;28;20028;-78
2023/04/07 01:11:22;;;;;;;16.35;3.33;;;;;;;4.94;100.00;101670.94;5097084;28;20054;-79
2023/04/07 01:13:49;;;;;;;20.45;3.88;;;;;;;4.93;100.00;101666.59;5114644;28;20042;-78
2023/04/07 01:16:38;;;;;;;15.77;3.85;;;;;;;4.91;100.00;101675.53;5096386;28;20073;-78
2023/04/07 01:19:20;;;;;;;21.70;3.97;;;;;;;4.88;100.00;101666.00;5096404;28;20437;-78
2023/04/07 01:21:48;;;;;;;17.20;3.65;;;;;;;4.85;100.00;101660.03;5096797;28;20020;-78
2023/04/07 01:24:55;;;;;;;11.20;3.00;;;;;;;4.85;100.00;101667.94;5114535;28;20388;-79
2023/04/07 01:27:39;;;;;;;15.88;3.80;;;;;;;4.86;100.00;101665.22;5064908;28;20467;-77
2023/04/07 01:30:10;;;;;;;13.88;3.25;;;;;;;4.87;100.00;101661.66;5096568;28;20034;-79
2023/04/07 01:32:38;;;;;;;20.65;4.57;;;;;;;4.89;100.00;101665.06;5096424;28;20380;-78
2023/04/07 01:35:08;;;;;;;15.93;3.28;;;;;;;4.97;100.00;101671.72;5114389;28;20023;-78
2023/04/07 01:37:36;;;;;;;18.08;4.07;;;;;;;4.95;100.00;101670.00;5097015;28;20037;-79
2023/04/07 01:40:04;;;;;;;26.17;4.00;;;;;;;4.97;100.00;101671.72;5095420;28;20495;-78
2023/04/07 01:42:31;;;;;;;17.63;3.63;;;;;;;4.94;100.00;101673.59;5096469;28;20464;-78
2023/04/07 01:44:58;;;;;;;15.18;3.30;;;;;;;4.92;100.00;101680.72;5114656;28;20027;-78
2023/04/07 01:47:26;;;;;;;12.65;3.25;;;;;;;4.90;100.00;101682.59;5079132;28;20039;-79
2023/04/07 01:49:53;;;;;;;17.48;3.42;;;;;;;4.84;100.00;101674.16;5096903;28;20084;-79
2023/04/07 01:52:19;;;;;;;15.90;3.35;;;;;;;4.83;100.00;101675.09;5096034;28;20031;-78
2023/04/07 01:54:45;;;;;;;18.15;3.55;;;;;;;4.86;100.00;101675.78;5096151;28;20538;-78
2023/04/07 01:57:11;;;;;;;14.05;3.42;;;;;;;4.94;100.00;101672.72;5114366;28;20515;-80
2023/04/07 01:59:36;;;;;;;16.15;3.80;;;;;;;4.97;100.00;101674.34;5096223;28;20028;-78
2023/04/07 02:02:02;;;;;;;13.73;3.33;;;;;;;4.99;100.00;101677.78;5114182;28;20123;-79
2023/04/07 02:04:37;;;;;;;12.23;3.53;;;;;;;4.91;100.00;101673.75;5114027;28;20062;-78
2023/04/07 02:07:41;;;;;;;15.00;3.03;;;;;;;4.90;100.00;101676.47;5096265;28;20020;-78
2023/04/07 02:10:10;;;;;;;15.38;3.45;;;;;;;4.82;100.00;101679.53;5113850;28;20053;-77
2023/04/07 02:12:38;;;;;;;15.60;3.35;;;;;;;4.77;100.00;101673.63;5113901;28;20055;-77
2023/04/07 02:15:07;;;;;;;13.95;3.22;;;;;;;4.79;100.00;101678.81;5095193;28;20043;-80
2023/04/07 02:17:35;;;;;;;20.85;3.33;;;;;;;4.82;100.00;101668.97;5113126;28;20110;-77
2023/04/07 02:20:01;;;;;;;15.18;2.55;;;;;;;4.82;100.00;101676.03;5078322;28;20122;-78
2023/04/07 02:22:28;;;;;;;10.75;2.70;;;;;;;4.83;100.00;101678.56;5095070;28;20067;-77
2023/04/07 02:24:53;;;;;;;12.10;2.80;;;;;;;4.87;100.00;101677.47;5078651;28;20028;-80
2023/04/07 02:27:19;;;;;;;14.07;3.08;;;;;;;4.96;100.00;101676.16;5095406;28;20039;-78
2023/04/07 02:29:45;;;;;;;14.63;3.00;;;;;;;5.06;100.00;101684.41;5095047;28;20031;-79
2023/04/07 02:32:10;;;;;;;16.33;2.85;;;;;;;5.20;100.00;101683.69;5095342;28;20030;-79
2023/04/07 02:34:36;;;;;;;10.90;2.97;;;;;;;5.31;100.00;101683.91;5078194;28;20506;-78
2023/04/07 02:37:01;;;;;;;13.73;2.78;;;;;;;5.43;100.00;101685.91;5078112;28;20303;-80
2023/04/07 02:39:26;;;;;;;16.88;2.70;;;;;;;5.49;100.00;101684.69;5094409;28;20459;-79
2023/04/07 02:41:52;;;;;;;12.57;2.45;;;;;;;5.54;100.00;101681.78;5077407;28;20536;-77
2023/04/07 02:44:17;;;;;;;12.95;2.63;;;;;;;5.60;100.00;101679.69;5095432;28;20032;-78
2023/04/07 02:46:43;;;;;;;13.60;3.00;;;;;;;5.68;100.00;101681.88;5094593;28;20042;-76
2023/04/07 02:49:09;;;;;;;15.15;2.80;;;;;;;5.75;100.00;101685.88;5094948;28;20039;-78
2023/04/07 02:51:34;;;;;;;19.70;3.58;;;;;;;5.74;100.00;101684.16;5093363;28;20350;-79
2023/04/07 02:54:00;;;;;;;10.93;2.50;;;;;;;5.77;100.00;101678.72;5091055;28;20132;-78
2023/04/07 02:56:25;;;;;;;14.88;2.83;;;;;;;5.80;100.00;101678.53;5092527;28;20557;-79
2023/04/07 02:58:51;;;;;;;12.27;2.50;;;;;;;5.83;100.00;101685.44;5090800;28;20032;-77
2023/04/07 03:01:16;;;;;;;19.50;2.90;;;;;;;5.85;100.00;101686.19;5090630;28;20044;-78
2023/04/07 03:03:43;;;;;;;11.90;2.60;;;;;;;5.87;100.00;101686.97;5090885;28;20173;-78
2023/04/07 03:06:09;;;;;;;16.40;2.95;;;;;;;5.90;100.00;101696.53;5092473;28;20527;-76
2023/04/07 03:08:35;;;;;;;9.98;3.03;;;;;;;5.93;100.00;101694.53;5090617;28;20036;-76
2023/04/07 03:11:00;;;;;;;11.90;2.90;;;;;;;5.95;100.00;101686.53;5092357;28;20096;-77
2023/04/07 03:13:26;;;;;;;11.30;2.85;;;;;;;5.98;100.00;101695.16;5090709;28;20341;-77
2023/04/07 03:15:52;;;;;;;10.07;2.50;;;;;;;5.97;100.00;101701.38;5090679;28;20028;-77
2023/04/07 03:18:17;;;;;;;8.90;2.47;;;;;;;5.97;100.00;101695.22;5090678;28;20032;-76
2023/04/07 03:20:43;;;;;;;14.15;2.50;;;;;;;5.99;100.00;101694.22;5073715;28;20146;-76
2023/04/07 03:23:08;;;;;;;16.35;2.65;;;;;;;6.01;100.00;101707.34;5073653;28;20032;-76
2023/04/07 03:25:34;;;;;;;6.50;2.10;;;;;;;5.99;100.00;101698.66;5090578;28;20036;-77
2023/04/07 03:28:00;;;;;;;14.05;2.65;;;;;;;5.97;100.00;101698.75;5090966;28;20036;-77
2023/04/07 03:30:26;;;;;;;10.73;2.20;;;;;;;5.98;100.00;101705.72;5090765;28;20028;-77
2023/04/07 03:32:51;;;;;;;10.75;2.00;;;;;;;5.94;100.00;101696.25;5073716;28;20064;-79
2023/04/07 03:35:17;;;;;;;6.25;2.00;;;;;;;5.93;100.00;101696.34;5090982;28;20051;-77
2023/04/07 03:37:42;;;;;;;9.43;3.20;;;;;;;5.94;100.00;101692.75;5073471;28;20469;-76
2023/04/07 03:40:08;;;;;;;3.80;1.63;;;;;;;5.91;100.00;101699.06;5073830;28;20123;-77
2023/04/07 03:42:33;;;;;;;11.20;2.00;;;;;;;5.90;100.00;101697.34;5090307;28;20036;-76
2023/04/07 03:44:59;;;;;;;4.78;1.98;;;;;;;5.92;100.00;101698.09;5090848;28;20176;-77
2023/04/07 03:47:24;;;;;;;12.30;2.30;;;;;;;5.94;100.00;101698.91;5091798;28;20437;-78
2023/04/07 03:49:50;;;;;;;5.40;2.03;;;;;;;5.94;100.00;101698.03;5073028;28;20040;-77
2023/04/07 03:52:15;;;;;;;11.27;2.33;;;;;;;5.95;100.00;101702.38;5090739;28;20036;-78
2023/04/07 03:54:41;;;;;;;10.27;2.08;;;;;;;5.95;100.00;101699.72;5108891;28;20120;-79
2023/04/07 03:57:07;;;;;;;8.55;2.17;;;;;;;5.94;100.00;101703.31;5077015;28;20137;-77
2023/04/07 03:59:32;;;;;;;8.45;2.25;;;;;;;5.94;100.00;101706.81;5093716;28;20529;-78
2023/04/07 04:01:57;;;;;;;12.60;2.30;;;;;;;5.95;100.00;101711.13;5093987;28;20040;-78
2023/04/07 04:04:26;;;;;;;6.22;1.80;;;;;;;5.93;100.00;101704.25;5096462;28;20028;-77
2023/04/07 04:06:51;;;;;;;11.10;2.42;;;;;;;5.94;100.00;101708.59;5097768;28;20128;-77
2023/04/07 04:09:17;;;;;;;5.78;1.80;;;;;;;5.93;100.00;101706.91;5097289;28;20499;-78
2023/04/07 04:11:42;;;;;;;11.35;2.15;;;;;;;5.93;100.00;101713.03;5097473;28;20128;-79
2023/04/07 04:14:07;;;;;;;11.60;2.50;;;;;;;5.93;100.00;101713.03;5115723;28;20032;-77
2023/04/07 04:16:34;;;;;;;12.73;2.75;;;;;;;5.93;100.00;101709.56;5097291;28;20075;-77
2023/04/07 04:19:00;;;;;;;9.45;2.03;;;;;;;5.93;100.00;101715.69;5097792;28;20081;-77
2023/04/07 04:21:26;;;;;;;15.90;2.00;;;;;;;5.94;100.00;101709.47;5097309;28;20067;-78
2023/04/07 04:23:51;;;;;;;10.35;1.90;;;;;;;5.96;100.00;101717.28;5115512;28;20027;-77
2023/04/07 04:26:17;;;;;;;12.20;2.15;;;;;;;5.97;100.00;101716.38;5079949;28;20024;-78
2023/04/07 04:28:42;;;;;;;8.85;2.22;;;;;;;5.99;100.00;101725.06;5096691;28;20040;-77
2023/04/07 04:31:08;;;;;;;11.18;2.00;;;;;;;6.00;100.00;101729.41;5097049;28;20084;-78
2023/04/07 04:33:33;;;;;;;11.85;2.22;;;;;;;6.02;100.00;101731.94;5115405;28;20064;-76
2023/04/07 04:35:59;;;;;;;10.75;2.08;;;;;;;6.02;100.00;101727.53;5096690;28;20079;-76
2023/04/07 04:38:24;;;;;;;8.38;2.00;;;;;;;6.04;100.00;101735.38;5096898;28;20028;-76
2023/04/07 04:40:50;;;;;;;15.15;2.28;;;;;;;6.06;100.00;101733.50;5096864;28;20031;-78
2023/04/07 04:43:15;;;;;;;10.40;2.35;;;;;;;6.07;100.00;101735.19;5097157;28;20032;-78
2023/04/07 04:45:41;;;;;;;11.55;2.25;;;;;;;6.03;100.00;101736.31;5115466;28;20496;-79
2023/04/07 04:48:06;;;;;;;9.52;2.08;;;;;;;6.03;100.00;101733.66;5114561;28;20092;-77
2023/04/07 04:50:32;;;;;;;12.80;2.20;;;;;;;5.98;100.00;101734.78;5096488;28;20031;-77
2023/04/07 04:52:57;;;;;;;11.80;2.30;;;;;;;6.00;100.00;101735.56;5095965;28;20027;-76
2023/04/07 04:55:24;;;;;;;8.05;1.80;;;;;;;6.02;100.00;101734.59;5114195;28;20043;-76
2023/04/07 04:57:49;;;;;;;16.90;2.60;;;;;;;6.01;100.00;101746.97;5096542;28;20067;-78
2023/04/07 05:00:15;;;;;;;11.35;1.50;;;;;;;5.99;100.00;101741.78;5114615;28;20068;-76
2023/04/07 05:02:41;;;;;;;11.25;2.08;;;;;;;5.99;100.00;101743.56;5096180;28;20031;-77
2023/04/07 05:05:07;;;;;;;13.02;2.53;;;;;;;6.00;100.00;101742.59;5096007;28;20067;-76
2023/04/07 05:07:32;;;;;;;19.15;3.38;;;;;;;6.00;100.00;101742.59;5095970;28;20362;-78
2023/04/07 05:09:58;;;;;;;11.38;1.95;;;;;;;6.01;100.00;101741.69;5095690;28;20071;-76
2023/04/07 05:12:23;;;;;;;12.25;1.83;;;;;;;6.04;100.00;101743.31;5078861;28;20032;-77
2023/04/07 05:14:48;;;;;;;8.60;1.95;;;;;;;6.00;100.00;101743.47;5113859;28;20077;-76
2023/04/07 05:17:15;;;;;;;19.42;2.33;;;;;;;6.00;100.00;101734.69;5115045;28;20365;-78
2023/04/07 05:19:41;;;;;;;13.00;2.25;;;;;;;6.00;100.00;101745.25;5095712;28;20050;-78
2023/04/07 05:22:06;;;;;;;8.25;2.25;;;;;;;6.00;100.00;101745.25;5114162;28;20031;-76
2023/04/07 05:24:31;;;;;;;9.25;2.78;;;;;;;5.96;100.00;101738.44;5095995;28;20039;-78
2023/04/07 05:26:57;;;;;;;8.20;2.33;;;;;;;6.01;100.00;101752.25;5095566;28;20508;-76
2023/04/07 05:29:32;;;;;;;9.48;2.20;;;;;;;6.03;100.00;101753.03;5113880;28;20118;-77
2023/04/07 05:32:00;;;;;;;11.85;1.88;;;;;;;6.02;100.00;101756.59;5096008;28;20381;-76
2023/04/07 05:34:28;;;;;;;9.45;2.88;;;;;;;6.04;100.00;101753.88;5095995;28;20023;-77
2023/04/07 05:36:54;;;;;;;7.85;2.10;;;;;;;6.06;100.00;101760.78;5113493;28;20124;-77
2023/04/07 05:39:19;;;;;;;8.35;1.92;;;;;;;6.08;100.00;101752.78;5113654;28;20467;-76
2023/04/07 05:41:44;;;;;;;8.65;2.13;;;;;;;6.08;100.00;101750.97;5078280;28;20036;-77
2023/04/07 05:44:10;;;;;;;11.40;1.92;;;;;;;6.10;100.00;101757.00;5095392;28;20058;-76
2023/04/07 05:46:35;;;;;;;11.30;2.38;;;;;;;6.14;100.00;101755.91;5078567;28;20151;-77
2023/04/07 05:49:01;;;;;;;14.93;2.20;;;;;;;6.18;100.00;101759.22;5113806;28;20029;-76
2023/04/07 05:51:26;;;;;;;13.70;1.70;;;;;;;6.21;100.00;101766.09;5078457;28;20420;-78
2023/04/07 05:53:52;;;;;;;10.40;1.98;;;;;;;6.24;100.00;101766.81;5095019;28;20039;-78
2023/04/07 05:56:20;;;;;;;7.68;1.90;;;;;;;6.29;100.00;101772.66;5113846;28;20041;-76
2023/04/07 05:58:46;;;;;;;12.32;1.83;;;;;;;6.33;100.00;101776.00;5095616;28;20066;-78
2023/04/07 06:01:11;;;;;;;15.45;3.45;;;;;;;6.33;100.00;101770.72;5095264;28;20456;-76
2023/04/07 06:03:36;;;;;;;8.52;1.80;;;;;;;6.38;100.00;101778.38;5113980;28;20031;-77
2023/04/07 06:06:02;;;;;;;7.25;1.70;;;;;;;6.43;100.00;101771.84;5095725;28;20035;-77
2023/04/07 06:08:27;;;;;;;10.10;1.80;;;;;;;6.46;100.00;101776.97;5078920;28;20487;-76
2023/04/07 06:10:53;;;;;;;9.65;1.65;;;;;;;6.46;100.00;101784.06;5095524;28;20036;-77
2023/04/07 06:13:18;;;;;;;13.07;2.15;;;;;;;6.45;100.00;101784.97;5095674;28;20036;-77
2023/04/07 06:15:44;;;;;;;11.25;1.88;;;;;;;6.46;100.00;101792.81;5095733;28;20039;-77
2023/04/07 06:18:09;;;;;;;11.43;2.45;;;;;;;6.48;100.00;101792.75;5095658;28;20059;-76
2023/04/07 06:20:35;;;;;;;12.65;1.80;;;;;;;6.47;100.00;101791.91;5095672;28;20126;-78
2023/04/07 06:23:00;;;;;;;10.13;2.13;;;;;;;6.48;100.00;101790.13;5078854;28;20027;-77
2023/04/07 06:25:26;;;;;;;8.73;2.10;;;;;;;6.48;100.00;101795.41;5114318;28;20034;-78
2023/04/07 06:27:53;;;;;;;14.30;1.95;;;;;;;6.48;100.00;101796.25;5094811;28;20472;-78
2023/04/07 06:30:18;;;;;;;10.88;1.85;;;;;;;6.49;100.00;101803.25;5095613;28;20042;-79
2023/04/07 06:32:44;;;;;;;12.88;2.17;;;;;;;6.50;100.00;101806.75;5113422;28;20032;-78
2023/04/07 06:35:10;;;;;;;16.45;2.10;;;;;;;6.49;100.00;101803.25;5078313;28;20059;-77
2023/04/07 06:37:35;;;;;;;13.57;2.67;;;;;;;6.52;100.00;101807.50;5113734;28;20062;-79
2023/04/07 06:40:00;;;;;;;11.88;2.53;;;;;;;6.49;100.00;101805.91;5113931;28;20096;-79
2023/04/07 06:42:26;;;;;;;10.77;1.60;;;;;;;6.49;100.00;101807.66;5095390;28;20035;-75
2023/04/07 06:44:52;;;;;;;15.32;2.33;;;;;;;6.46;100.00;101813.97;5113641;28;20035;-78
2023/04/07 06:47:17;;;;;;;9.95;2.15;;;;;;;6.50;100.00;101818.16;5113535;28;20031;-78
2023/04/07 06:49:43;;;;;;;4.88;1.50;;;;;;;6.56;100.00;101819.59;5113365;28;20078;-80
2023/04/07 06:52:08;;;;;;;5.30;1.80;;;;;;;6.57;100.00;101815.16;5113675;28;20028;-76
2023/04/07 06:54:34;;;;;;;6.47;1.92;;;;;;;6.58;100.00;101819.50;5112721;28;20093;-76
2023/04/07 06:57:00;;;;;;;8.32;1.50;;;;;;;6.58;100.00;101816.88;5113086;28;20035;-75
2023/04/07 06:59:25;;;;;;;7.45;1.67;;;;;;;6.59;100.00;101823.88;5094445;28;20027;-76
2023/04/07 07:01:51;;;;;;;9.02;1.80;;;;;;;6.62;100.00;101821.03;5113006;28;20046;-75
2023/04/07 07:04:16;;;;;;;9.90;1.75;;;;;;;6.58;100.00;101820.34;5094379;28;20059;-76
2023/04/07 07:06:41;;;;;;;9.30;2.28;;;;;;;6.61;100.00;101825.47;5094766;28;20027;-76
2023/04/07 07:09:07;;;;;;;12.38;2.20;;;;;;;6.62;100.00;101824.53;5095003;28;20098;-80
2023/04/07 07:11:33;;;;;;;11.98;1.90;;;;;;;6.67;100.00;101833.06;5095020;28;20084;-79
2023/04/07 07:13:58;;;;;;;17.13;1.88;;;;;;;6.67;100.00;101832.19;5112966;28;20036;-80
2023/04/07 07:16:23;;;;;;;11.30;2.22;;;;;;;6.64;100.00;101830.59;5094845;28;20070;-79
2023/04/07 07:18:50;;;;;;;10.25;1.95;;;;;;;6.60;100.00;101838.78;5094280;28;20043;-77
2023/04/07 07:21:16;;;;;;;9.18;1.70;;;;;;;6.60;100.00;101834.34;5094618;28;20440;-77
2023/04/07 07:23:42;;;;;;;10.32;2.10;;;;;;;6.63;100.00;101835.97;5094299;28;20028;-76
2023/04/07 07:26:07;;;;;;;10.05;1.60;;;;;;;6.65;100.00;101839.38;5112503;28;20483;-77
2023/04/07 07:28:32;;;;;;;10.55;2.33;;;;;;;6.70;100.00;101848.75;5112428;28;20024;-79
2023/04/07 07:30:58;;;;;;;13.82;2.33;;;;;;;6.73;100.00;101850.34;5112587;28;20036;-80
2023/04/07 07:33:23;;;;;;;7.97;2.00;;;;;;;6.77;100.00;101843.94;5112225;28;20499;-78
2023/04/07 07:35:49;;;;;;;9.10;1.80;;;;;;;6.79;100.00;101849.13;5112788;28;20031;-79
2023/04/07 07:38:14;;;;;;;6.35;1.65;;;;;;;6.80;100.00;101856.16;5113478;28;20335;-78
2023/04/07 07:40:40;;;;;;;11.15;1.85;;;;;;;6.88;100.00;101852.09;5098159;28;20059;-77
2023/04/07 07:43:05;;;;;;;5.97;1.60;;;;;;;7.01;100.00;101846.94;5116585;28;20042;-77
2023/04/07 07:45:31;;;;;;;14.52;2.40;;;;;;;7.12;100.00;101858.66;5116827;28;20392;-79
2023/04/07 07:47:56;;;;;;;11.98;2.08;;;;;;;7.16;100.00;101852.25;5098284;28;20171;-79
2023/04/07 07:50:22;;;;;;;9.73;2.15;;;;;;;7.16;100.00;101854.91;5116633;28;20426;-79
2023/04/07 07:52:47;;;;;;;7.25;1.60;;;;;;;7.17;100.00;101862.75;5116493;28;20032;-76
2023/04/07 07:55:13;;;;;;;11.02;2.45;;;;;;;7.15;100.00;101869.06;5117265;28;20417;-77
2023/04/07 07:57:39;;;;;;;14.82;2.30;;;;;;;7.13;100.00;101870.97;5116607;28;20090;-78
2023/04/07 08:00:05;;;;;;;7.10;1.77;;;;;;;7.13;100.00;101870.97;5116882;28;20027;-77
2023/04/07 08:02:32;;;;;;;10.10;1.65;;;;;;;7.20;100.00;101873.16;5117947;28;20127;-76
2023/04/07 08:04:58;;;;;;;12.93;2.58;;;;;;;7.24;100.00;101874.69;5117897;28;20188;-81
2023/04/07 08:07:24;;;;;;;10.50;2.15;;;;;;;7.26;100.00;101874.59;5100324;28;20445;-78
2023/04/07 08:09:49;;;;;;;7.97;2.15;;;;;;;7.31;100.00;101869.84;5117313;28;20059;-78
2023/04/07 08:12:15;;;;;;;10.15;1.80;;;;;;;7.28;100.00;101877.97;5099556;28;20493;-79
2023/04/07 08:14:40;;;;;;;12.60;1.70;;;;;;;7.32;100.00;101876.03;5099724;28;20036;-81
2023/04/07 08:17:06;;;;;;;8.85;1.95;;;;;;;7.38;100.00;101880.94;5081365;28;20462;-80
2023/04/07 08:19:31;;;;;;;12.98;1.95;;;;;;;7.40;100.00;101885.22;5116426;28;20035;-76
2023/04/07 08:21:56;;;;;;;15.73;1.98;;;;;;;7.44;100.00;101888.50;5097599;28;20427;-77
2023/04/07 08:24:22;;;;;;;9.75;2.03;;;;;;;7.44;100.00;101887.66;5116414;28;20035;-77
2023/04/07 08:26:47;;;;;;;12.75;2.03;;;;;;;7.43;100.00;101900.03;5097763;28;20147;-80
2023/04/07 08:29:14;;;;;;;10.40;2.60;;;;;;;7.39;100.00;101899.38;5115460;28;20043;-75
2023/04/07 08:31:39;;;;;;;15.10;2.13;;;;;;;7.38;100.00;101899.47;5115839;28;20031;-78
2023/04/07 08:34:05;;;;;;;16.77;2.85;;;;;;;7.41;100.00;101897.47;5097258;28;20080;-76
2023/04/07 08:36:31;;;;;;;14.73;1.98;;;;;;;7.41;100.00;101899.28;5115298;28;20492;-73
2023/04/07 08:38:57;;;;;;;9.43;2.38;;;;;;;7.36;100.00;101907.50;5116047;28;20036;-75
2023/04/07 08:41:43;;;;;;;12.27;2.00;;;;;;;7.26;100.00;101913.47;5115503;28;20027;-74
2023/04/07 08:44:09;;;;;;;14.60;2.28;;;;;;;7.24;100.00;101906.44;5115545;28;20126;-76
2023/04/07 08:46:39;;;;;;;13.65;1.90;;;;;;;7.29;100.00;101907.97;5115726;28;20488;-75
2023/04/07 08:49:10;;;;;;;11.60;2.08;;;;;;;7.37;100.00;101905.69;5115506;28;20452;-74
2023/04/07 08:51:37;;;;;;;7.45;2.10;;;;;;;7.48;100.00;101913.88;5096815;28;20031;-73
2023/04/07 08:54:17;;;;;;;9.73;2.10;;;;;;;7.62;100.00;101907.72;5114955;28;20119;-74
2023/04/07 08:56:43;;;;;;;10.65;1.85;;;;;;;7.85;100.00;101910.75;5115559;28;20039;-76
2023/04/07 08:59:11;;;;;;;15.75;2.10;;;;;;;8.07;100.00;101908.47;5115430;28;20030;-74
2023/04/07 09:01:37;;;;;;;14.45;2.25;;;;;;;8.22;100.00;101909.28;5115090;28;20333;-76
2023/04/07 09:04:03;;;;;;;11.82;2.10;;;;;;;8.33;100.00;101921.00;5115703;28;20024;-75
2023/04/07 09:06:30;;;;;;;13.75;1.95;;;;;;;8.34;100.00;101915.59;5096533;28;20024;-74
2023/04/07 09:08:56;;;;;;;10.02;2.20;;;;;;;8.30;100.00;101914.13;5096704;28;20039;-72
2023/04/07 09:11:22;;;;;;;7.63;1.92;;;;;;;8.25;100.00;101919.69;5097039;28;20043;-73
2023/04/07 09:13:49;;;;;;;11.63;1.92;;;;;;;8.25;100.00;101924.16;5079886;28;20362;-73
2023/04/07 09:16:15;;;;;;;12.68;2.10;;;;;;;8.31;100.00;101921.09;5114941;28;20118;-72
2023/04/07 09:18:41;;;;;;;10.70;2.10;;;;;;;8.30;100.00;101922.09;5096651;28;20449;-73
2023/04/07 09:21:06;;;;;;;13.00;1.70;;;;;;;8.40;100.00;101924.97;5115154;28;20115;-72
2023/04/07 09:23:36;;;;;;;15.80;2.20;;;;;;;8.40;100.00;101912.56;5115065;28;20063;-74
2023/04/07 09:26:23;;;;;;;13.90;2.10;;;;;;;8.35;100.00;101917.31;5114856;28;20073;-78
2023/04/07 09:28:52;;;;;;;7.95;1.80;;;;;;;8.27;100.00;101922.25;5096451;28;20534;-74
2023/04/07 09:31:20;;;;;;;11.40;1.95;;;;;;;8.31;100.00;101923.75;5114597;28;20019;-76
2023/04/07 09:33:46;;;;;;;11.13;2.33;;;;;;;8.44;100.00;101921.22;5096156;28;20032;-72
2023/04/07 09:36:11;;;;;;;9.68;1.70;;;;;;;8.51;100.00;101921.66;5096362;28;20032;-74
2023/04/07 09:38:42;;;;;;;16.25;2.42;;;;;;;8.64;100.00;101926.09;5096174;28;20059;-74
2023/04/07 09:41:15;;;;;;;9.45;1.83;;;;;;;8.74;100.00;101923.66;5096482;28;20407;-75
2023/04/07 09:43:45;;;;;;;14.35;2.22;;;;;;;8.73;100.00;101924.66;5096866;28;20380;-72
2023/04/07 09:46:15;;;;;;;13.05;2.40;;;;;;;8.65;100.00;101930.44;5114228;28;20465;-74
2023/04/07 09:48:42;;;;;;;9.32;1.75;;;;;;;8.56;100.00;101924.88;5114825;28;20031;-75
2023/04/07 09:51:17;;;;;;;16.10;2.45;;;;;;;8.50;100.00;101931.44;5095994;28;20423;-74
2023/04/07 09:53:43;;;;;;;11.43;2.15;;;;;;;8.43;100.00;101935.38;5095469;28;20042;-74
2023/04/07 09:56:10;;;;;;;11.32;2.10;;;;;;;8.40;100.00;101933.78;5114274;28;20469;-74
2023/04/07 09:58:41;;;;;;;12.70;2.22;;;;;;;8.38;100.00;101941.00;5114154;28;20034;-74
2023/04/07 10:01:11;;;;;;;7.57;1.83;;;;;;;8.35;100.00;101933.22;5114223;28;20031;-74
2023/04/07 10:03:37;;;;;;;12.13;1.70;;;;;;;8.50;100.00;101941.19;5114056;28;20039;-73
2023/04/07 10:06:04;;;;;;;16.48;2.92;;;;;;;8.59;100.00;101940.59;5114117;28;20500;-73
2023/04/07 10:08:31;;;;;;;14.80;2.30;;;;;;;8.64;100.00;101943.78;5114163;28;20092;-74
2023/04/07 10:10:57;;;;;;;17.50;2.45;;;;;;;8.64;100.00;101942.00;5113967;28;20055;-74
2023/04/07 10:13:24;;;;;;;18.33;2.50;;;;;;;8.61;100.00;101947.53;5113973;28;20038;-73
2023/04/07 10:15:51;;;;;;;17.60;2.25;;;;;;;8.56;100.00;101951.41;5113521;28;20485;-76
2023/04/07 10:18:19;;;;;;;14.68;2.30;;;;;;;8.41;100.00;101954.06;5113562;28;20121;-74
2023/04/07 10:20:47;;;;;;;15.35;2.45;;;;;;;8.17;100.00;101960.91;5113864;28;20031;-75
2023/04/07 10:23:21;;;;;;;16.83;2.67;;;;;;;7.97;100.00;101952.38;5113917;28;20023;-76
2023/04/07 10:25:49;;;;;;;17.40;2.65;;;;;;;7.92;100.00;101962.44;5113791;28;20027;-74
2023/04/07 10:28:17;;;;;;;20.33;2.60;;;;;;;7.94;100.00;101956.09;5113817;28;20127;-73
2023/04/07 10:30:44;;;;;;;13.18;1.75;;;;;;;8.10;100.00;101961.28;5113438;28;20436;-76
2023/04/07 10:33:09;;;;;;;12.48;2.13;;;;;;;8.23;100.00;101960.53;5113294;28;20418;-76
2023/04/07 10:36:06;;;;;;;16.08;2.40;;;;;;;8.36;100.00;101960.59;5113622;28;20027;-76
2023/04/07 10:38:32;;;;;;;10.60;2.38;;;;;;;8.47;100.00;101961.66;5095263;28;20054;-74
2023/04/07 10:40:57;;;;;;;13.60;2.33;;;;;;;8.59;100.00;101959.16;5113596;28;20027;-75
2023/04/07 10:43:40;;;;;;;14.45;2.00;;;;;;;8.57;100.00;101961.06;5113939;28;20032;-74
2023/04/07 10:46:06;;;;;;;10.07;2.25;;;;;;;8.55;100.00;101965.63;5113438;28;20032;-74
2023/04/07 10:48:32;;;;;;;10.90;2.10;;;;;;;8.68;100.00;101971.00;5113823;28;20077;-73
2023/04/07 10:51:17;;;;;;;17.45;2.33;;;;;;;8.69;100.00;101970.03;5112970;28;20062;-74
2023/04/07 10:54:15;;;;;;;15.25;2.20;;;;;;;8.72;100.00;101962.75;5094995;28;20028;-74
2023/04/07 10:57:02;;;;;;;14.65;1.80;;;;;;;8.77;100.00;101965.09;5106364;28;20048;-75
2023/04/07 10:59:32;;;;;;;9.82;2.00;;;;;;;8.80;100.00;101970.19;5094993;28;20089;-72
2023/04/07 11:02:13;;;;;;;12.43;2.53;;;;;;;8.74;100.00;101974.09;5113492;28;20035;-75
2023/04/07 11:04:41;;;;;;;14.70;1.80;;;;;;;8.88;100.00;101978.50;5095499;28;20400;-74
2023/04/07 11:07:07;;;;;;;6.00;1.60;;;;;;;8.99;100.00;101978.66;5113967;28;20027;-74
2023/04/07 11:09:33;;;;;;;13.18;1.98;;;;;;;9.14;100.00;101974.13;5113154;28;20118;-73
2023/04/07 11:11:58;;;;;;;13.70;1.90;;;;;;;9.21;100.00;101973.72;5094596;28;20035;-74
2023/04/07 11:14:28;;;;;;;12.18;2.80;;;;;;;9.42;100.00;101974.06;5112892;28;20036;-74
2023/04/07 11:16:54;;;;;;;11.05;2.15;;;;;;;9.64;100.00;101981.44;5113090;28;20079;-75
2023/04/07 11:19:20;;;;;;;10.70;2.15;;;;;;;9.67;100.00;101989.19;5112934;28;20039;-74